createdAt,value
2019-02-15T00:01:22.810Z,7.07
2019-02-15T00:03:51.339Z,7.20
2019-02-15T00:06:19.883Z,7.10
2019-02-15T00:08:48.418Z,6.90
2019-02-15T00:11:16.891Z,6.50
2019-02-15T00:13:45.352Z,7.33
2019-02-15T00:16:13.926Z,6.90
2019-02-15T00:18:44.103Z,6.80
2019-02-15T00:21:20.082Z,6.63
2019-02-15T00:23:48.677Z,6.37
2019-02-15T00:26:17.162Z,6.57
2019-02-15T00:28:45.710Z,6.90
2019-02-15T00:31:15.802Z,7.00
2019-02-15T00:33:44.355Z,6.30
2019-02-15T00:36:12.831Z,7.40
2019-02-15T00:38:41.412Z,6.93
2019-02-15T00:41:09.964Z,7.00
2019-02-15T00:43:38.518Z,6.43
2019-02-15T00:46:08.661Z,6.50
2019-02-15T00:48:37.250Z,6.43
2019-02-15T00:51:13.334Z,7.17
2019-02-15T00:53:57.556Z,7.03
2019-02-15T00:56:33.527Z,6.23
2019-02-15T00:59:06.300Z,6.30
2019-02-15T01:01:36.511Z,6.40
2019-02-15T01:04:09.456Z,5.87
2019-02-15T01:06:55.308Z,6.00
2019-02-15T01:09:35.043Z,5.83
2019-02-15T01:12:08.175Z,6.63
2019-02-15T01:14:36.732Z,6.03
2019-02-15T01:17:06.464Z,5.67
2019-02-15T01:19:35.037Z,5.93
2019-02-15T01:22:03.654Z,5.57
2019-02-15T01:24:32.197Z,6.60
2019-02-15T01:27:02.325Z,5.37
2019-02-15T01:29:44.527Z,6.10
2019-02-15T01:32:17.333Z,5.43
2019-02-15T01:35:02.164Z,5.37
2019-02-15T01:37:34.928Z,5.77
2019-02-15T01:40:05.231Z,5.70
2019-02-15T01:42:35.418Z,6.20
2019-02-15T01:45:09.395Z,6.40
2019-02-15T01:47:39.999Z,6.50
2019-02-15T01:50:08.560Z,5.77
2019-02-15T01:52:37.067Z,5.80
2019-02-15T01:55:06.460Z,5.20
2019-02-15T01:57:35.034Z,5.60
2019-02-15T02:00:04.338Z,5.63
2019-02-15T02:02:32.887Z,5.90
2019-02-15T02:05:01.996Z,5.90
2019-02-15T02:07:30.712Z,6.47
2019-02-15T02:09:59.403Z,5.70
2019-02-15T02:12:27.988Z,6.10
2019-02-15T02:14:56.541Z,5.67
2019-02-15T02:17:25.087Z,6.13
2019-02-15T02:19:53.569Z,6.00
2019-02-15T02:22:22.166Z,5.63
2019-02-15T02:24:50.626Z,5.93
2019-02-15T02:27:19.125Z,5.73
2019-02-15T02:29:47.686Z,5.33
2019-02-15T02:32:17.528Z,6.13
2019-02-15T02:34:46.094Z,6.27
2019-02-15T02:37:14.647Z,6.03
2019-02-15T02:39:43.212Z,6.10
2019-02-15T02:42:11.779Z,5.93
2019-02-15T02:44:40.311Z,6.00
2019-02-15T02:47:08.867Z,6.60
2019-02-15T02:49:37.411Z,6.33
2019-02-15T02:52:07.534Z,6.27
2019-02-15T02:54:36.079Z,6.00
2019-02-15T02:57:04.527Z,5.83
2019-02-15T02:59:33.003Z,5.50
2019-02-15T03:02:01.569Z,5.97
2019-02-15T03:04:30.121Z,6.40
2019-02-15T03:06:58.893Z,5.30
2019-02-15T03:09:27.437Z,5.57
2019-02-15T03:11:55.993Z,5.10
2019-02-15T03:14:24.524Z,6.23
2019-02-15T03:16:53.029Z,6.20
2019-02-15T03:19:21.639Z,4.90
2019-02-15T03:21:50.193Z,5.50
2019-02-15T03:24:18.750Z,5.00
2019-02-15T03:26:47.294Z,5.80
2019-02-15T03:29:15.824Z,5.20
2019-02-15T03:31:44.312Z,5.17
2019-02-15T03:34:12.863Z,4.87
2019-02-15T03:36:48.743Z,4.70
2019-02-15T03:39:18.854Z,6.03
2019-02-15T03:41:47.322Z,5.00
2019-02-15T03:44:22.344Z,5.50
2019-02-15T03:46:46.001Z,4.77
2019-02-15T03:49:14.558Z,5.23
2019-02-15T03:51:43.106Z,5.23
2019-02-15T03:54:11.651Z,5.00
2019-02-15T03:56:40.115Z,4.70
2019-02-15T03:59:08.745Z,4.80
2019-02-15T04:01:37.283Z,5.20
2019-02-15T04:04:05.852Z,5.13
2019-02-15T04:06:34.411Z,5.37
2019-02-15T04:09:04.710Z,5.63
2019-02-15T04:11:33.240Z,5.00
2019-02-15T04:14:01.856Z,5.00
2019-02-15T04:16:30.429Z,5.90
2019-02-15T04:18:58.977Z,5.47
2019-02-15T04:21:27.538Z,4.80
2019-02-15T04:23:56.092Z,5.97
2019-02-15T04:26:26.183Z,5.90
2019-02-15T04:28:54.719Z,5.77
2019-02-15T04:31:23.275Z,5.83
2019-02-15T04:33:51.832Z,5.70
2019-02-15T04:36:20.390Z,5.80
2019-02-15T04:38:48.946Z,6.07
2019-02-15T04:41:17.491Z,5.60
2019-02-15T04:43:45.962Z,5.60
2019-02-15T04:46:14.513Z,5.20
2019-02-15T04:48:42.977Z,6.10
2019-02-15T04:51:11.470Z,6.00
2019-02-15T04:53:40.035Z,5.90
2019-02-15T04:56:08.587Z,5.43
2019-02-15T04:58:37.069Z,6.57
2019-02-15T05:01:05.694Z,6.43
2019-02-15T05:03:34.236Z,5.47
2019-02-15T05:06:02.758Z,5.97
2019-02-15T05:08:31.327Z,6.17
2019-02-15T05:10:59.862Z,5.20
2019-02-15T05:13:28.330Z,5.67
2019-02-15T05:15:56.803Z,6.17
2019-02-15T05:18:25.362Z,5.50
2019-02-15T05:20:55.388Z,5.37
2019-02-15T05:23:23.859Z,5.77
2019-02-15T05:25:52.411Z,5.57
2019-02-15T05:28:20.956Z,5.13
2019-02-15T05:30:49.528Z,5.70
2019-02-15T05:33:18.080Z,5.87
2019-02-15T05:35:46.635Z,5.67
2019-02-15T05:38:15.238Z,5.20
2019-02-15T05:40:43.798Z,5.90
2019-02-15T05:43:13.340Z,5.43
2019-02-15T05:45:41.907Z,5.10
2019-02-15T05:48:10.422Z,5.47
2019-02-15T05:50:38.983Z,4.97
2019-02-15T05:53:07.530Z,5.30
2019-02-15T05:55:36.077Z,4.83
2019-02-15T05:58:04.684Z,5.57
2019-02-15T06:00:36.952Z,5.63
2019-02-15T06:03:03.384Z,5.43
2019-02-15T06:05:31.900Z,5.63
2019-02-15T06:08:00.390Z,6.10
2019-02-15T06:10:28.930Z,6.33
2019-02-15T06:12:57.488Z,6.20
2019-02-15T06:15:25.966Z,5.73
2019-02-15T06:17:54.521Z,6.00
2019-02-15T06:20:23.138Z,7.17
2019-02-15T06:22:51.672Z,6.93
2019-02-15T06:25:20.223Z,7.03
2019-02-15T06:27:48.768Z,7.27
2019-02-15T06:30:17.246Z,7.37
2019-02-15T06:32:45.804Z,7.87
2019-02-15T06:35:15.743Z,8.37
2019-02-15T06:37:44.259Z,8.00
2019-02-15T06:40:12.729Z,9.50
2019-02-15T06:42:41.300Z,10.70
2019-02-15T06:45:09.916Z,9.93
2019-02-15T06:47:38.462Z,9.40
2019-02-15T06:50:07.957Z,8.47
2019-02-15T06:52:36.469Z,8.33
2019-02-15T06:55:07.874Z,7.87
2019-02-15T06:57:36.334Z,8.70
2019-02-15T07:00:23.928Z,9.87
2019-02-15T07:03:09.172Z,8.77
2019-02-15T07:05:38.455Z,7.80
2019-02-15T07:08:06.988Z,7.70
2019-02-15T07:10:35.552Z,7.70
2019-02-15T07:13:04.216Z,7.17
2019-02-15T07:15:33.998Z,7.57
2019-02-15T07:18:02.667Z,7.67
2019-02-15T07:20:31.290Z,7.93
2019-02-15T07:22:59.866Z,7.67
2019-02-15T07:25:28.439Z,7.13
2019-02-15T07:27:56.988Z,8.30
2019-02-15T07:30:25.536Z,8.57
2019-02-15T07:32:54.651Z,8.13
2019-02-15T07:35:23.231Z,8.00
2019-02-15T07:37:51.775Z,8.67
2019-02-15T07:40:20.309Z,7.60
2019-02-15T07:42:48.800Z,7.33
2019-02-15T07:45:17.903Z,7.90
2019-02-15T07:47:46.604Z,7.17
2019-02-15T07:50:15.074Z,7.00
2019-02-15T07:52:43.629Z,6.97
2019-02-15T07:55:12.202Z,7.87
2019-02-15T07:57:40.771Z,6.40
2019-02-15T08:00:12.195Z,7.17
2019-02-15T08:02:40.784Z,5.93
2019-02-15T08:05:10.341Z,7.40
2019-02-15T08:07:39.461Z,6.67
2019-02-15T08:10:10.377Z,7.33
2019-02-15T08:12:38.925Z,7.27
2019-02-15T08:15:09.437Z,7.33
2019-02-15T08:17:37.902Z,7.50
2019-02-15T08:20:09.356Z,7.40
2019-02-15T08:22:37.901Z,7.50
2019-02-15T08:25:06.804Z,6.93
2019-02-15T08:27:35.263Z,7.93
2019-02-15T08:30:04.095Z,8.47
2019-02-15T08:32:34.613Z,7.47
2019-02-15T08:35:03.407Z,7.73
2019-02-15T08:37:32.207Z,7.73
2019-02-15T08:40:00.713Z,7.40
2019-02-15T08:42:29.236Z,8.10
2019-02-15T08:44:58.035Z,8.10
2019-02-15T08:47:26.540Z,7.47
2019-02-15T08:49:55.078Z,8.33
2019-02-15T08:52:23.562Z,7.67
2019-02-15T08:54:52.123Z,8.20
2019-02-15T08:57:20.705Z,7.30
2019-02-15T08:59:49.229Z,8.27
2019-02-15T09:02:21.530Z,8.57
2019-02-15T09:04:50.079Z,8.30
2019-02-15T09:07:18.629Z,8.07
2019-02-15T09:09:47.106Z,7.80
2019-02-15T09:12:15.643Z,7.87
2019-02-15T09:14:44.209Z,8.40
2019-02-15T09:17:12.766Z,9.00
2019-02-15T09:19:41.321Z,9.77
2019-02-15T09:22:09.883Z,8.83
2019-02-15T09:24:38.438Z,8.20
2019-02-15T09:27:08.773Z,9.03
2019-02-15T09:29:37.332Z,9.10
2019-02-15T09:32:05.862Z,9.23
2019-02-15T09:34:34.354Z,8.90
2019-02-15T09:37:02.824Z,8.63
2019-02-15T09:39:31.356Z,9.40
2019-02-15T09:41:59.906Z,9.47
2019-02-15T09:44:28.367Z,9.10
2019-02-15T09:46:56.867Z,10.90
2019-02-15T09:49:25.443Z,9.80
2019-02-15T09:51:55.527Z,9.80
2019-02-15T09:54:24.112Z,9.67
2019-02-15T09:56:54.332Z,11.93
2019-02-15T09:59:22.849Z,10.93
2019-02-15T10:01:51.334Z,10.20
2019-02-15T10:04:19.966Z,9.73
2019-02-15T10:06:48.444Z,9.73
2019-02-15T10:09:16.927Z,10.07
2019-02-15T10:11:45.482Z,9.93
2019-02-15T10:14:17.060Z,11.90
2019-02-15T10:16:45.643Z,10.83
2019-02-15T10:19:22.189Z,11.00
2019-02-15T10:21:45.772Z,10.57
2019-02-15T10:24:14.417Z,9.63
2019-02-15T10:26:42.944Z,10.40
2019-02-15T10:29:11.520Z,9.67
2019-02-15T10:31:40.166Z,11.40
2019-02-15T10:34:09.622Z,10.83
2019-02-15T10:36:38.379Z,11.90
2019-02-15T10:39:07.235Z,10.03
2019-02-15T10:41:35.798Z,10.60
2019-02-15T10:44:04.463Z,11.17
2019-02-15T10:46:37.790Z,10.53
2019-02-15T10:49:03.809Z,9.87
2019-02-15T10:51:32.317Z,11.13
2019-02-15T10:54:00.897Z,10.63
2019-02-15T10:56:29.461Z,10.23
2019-02-15T10:58:58.098Z,9.53
2019-02-15T11:01:26.807Z,9.27
2019-02-15T11:03:55.378Z,9.73
2019-02-15T11:06:23.971Z,10.30
2019-02-15T11:08:54.977Z,10.03
2019-02-15T11:11:23.472Z,10.10
2019-02-15T11:13:52.108Z,11.07
2019-02-15T11:16:20.621Z,11.27
2019-02-15T11:18:49.089Z,10.07
2019-02-15T11:21:17.594Z,8.83
2019-02-15T11:23:47.340Z,9.23
2019-02-15T11:26:24.405Z,9.43
2019-02-15T11:28:46.188Z,8.97
2019-02-15T11:31:16.845Z,8.53
2019-02-15T11:33:45.030Z,7.50
2019-02-15T11:36:13.509Z,9.53
2019-02-15T11:38:42.064Z,9.87
2019-02-15T11:41:11.425Z,9.03
2019-02-15T11:43:40.085Z,8.03
2019-02-15T11:46:08.644Z,8.50
2019-02-15T11:48:37.204Z,7.43
2019-02-15T11:51:05.825Z,7.00
2019-02-15T11:53:34.517Z,7.57
2019-02-15T11:56:03.071Z,7.20
2019-02-15T11:58:31.641Z,7.47
2019-02-15T12:01:00.217Z,7.33
2019-02-15T12:03:28.797Z,7.33
2019-02-15T12:05:57.593Z,7.40
2019-02-15T12:08:26.087Z,7.47
2019-02-15T12:10:54.663Z,8.17
2019-02-15T12:13:23.144Z,6.40
2019-02-15T12:15:51.715Z,6.37
2019-02-15T12:18:20.255Z,5.80
2019-02-15T12:20:48.811Z,5.80
2019-02-15T12:23:17.372Z,5.50
2019-02-15T12:25:45.919Z,4.90
2019-02-15T12:28:17.029Z,5.53
2019-02-15T12:30:46.343Z,5.80
2019-02-15T12:33:14.913Z,6.40
2019-02-15T12:35:43.471Z,5.37
2019-02-15T12:38:12.050Z,5.10
2019-02-15T12:40:40.598Z,4.60
2019-02-15T12:43:09.157Z,5.80
2019-02-15T12:45:37.806Z,5.10
2019-02-15T12:48:06.366Z,5.37
2019-02-15T12:50:34.906Z,5.23
2019-02-15T12:53:03.404Z,4.73
2019-02-15T12:55:32.087Z,4.23
2019-02-15T12:58:00.662Z,4.00
2019-02-15T13:00:29.187Z,4.60
2019-02-15T13:02:57.999Z,4.87
2019-02-15T13:05:27.124Z,4.50
2019-02-15T13:07:55.672Z,4.50
2019-02-15T13:10:25.895Z,4.13
2019-02-15T13:12:54.449Z,4.07
2019-02-15T13:15:23.008Z,3.70
2019-02-15T13:17:51.550Z,4.63
2019-02-15T13:20:20.408Z,4.40
2019-02-15T13:22:48.971Z,4.13
2019-02-15T13:25:17.623Z,4.50
2019-02-15T13:27:46.170Z,3.87
2019-02-15T13:30:16.285Z,3.30
2019-02-15T13:32:44.843Z,3.40
2019-02-15T13:35:19.433Z,3.50
2019-02-15T13:37:48.008Z,3.70
2019-02-15T13:40:16.568Z,2.80
2019-02-15T13:42:45.209Z,3.17
2019-02-15T13:45:14.020Z,3.47
2019-02-15T13:47:42.603Z,3.10
2019-02-15T13:50:15.310Z,3.30
2019-02-15T13:52:43.940Z,3.60
2019-02-15T13:55:12.537Z,3.10
2019-02-15T13:57:41.040Z,3.20
2019-02-15T14:00:13.909Z,3.30
2019-02-15T14:02:42.486Z,3.27
2019-02-15T14:05:14.102Z,2.73
2019-02-15T14:07:42.648Z,2.50
2019-02-15T14:10:12.651Z,2.73
2019-02-15T14:12:41.783Z,2.30
2019-02-15T14:15:11.596Z,2.73
2019-02-15T14:17:44.812Z,2.60
2019-02-15T14:20:12.074Z,2.80
2019-02-15T14:22:40.701Z,2.37
2019-02-15T14:25:11.013Z,2.60
2019-02-15T14:27:39.616Z,2.27
2019-02-15T14:30:10.616Z,2.20
2019-02-15T14:32:39.168Z,2.20
2019-02-15T14:35:09.778Z,2.40
2019-02-15T14:37:38.332Z,2.43
2019-02-15T14:40:09.431Z,2.13
2019-02-15T14:42:37.982Z,2.57
2019-02-15T14:45:09.034Z,2.20
2019-02-15T14:47:37.565Z,2.13
2019-02-15T14:50:08.026Z,2.10
2019-02-15T14:52:36.553Z,1.70
2019-02-15T14:55:07.538Z,2.07
2019-02-15T14:57:36.174Z,1.87
2019-02-15T15:00:07.756Z,1.73
2019-02-15T15:02:36.329Z,1.47
2019-02-15T15:05:05.926Z,1.43
2019-02-15T15:07:34.486Z,2.70
2019-02-15T15:10:03.050Z,1.93
2019-02-15T15:12:31.610Z,1.63
2019-02-15T15:15:00.271Z,2.00
2019-02-15T15:17:28.826Z,2.00
2019-02-15T15:19:57.374Z,2.10
2019-02-15T15:22:26.468Z,2.10
2019-02-15T15:24:55.060Z,2.00
2019-02-15T15:27:23.616Z,2.87
2019-02-15T15:29:52.269Z,2.57
2019-02-15T15:32:20.817Z,2.50
2019-02-15T15:34:49.360Z,2.17
2019-02-15T15:37:17.846Z,2.47
2019-02-15T15:39:46.400Z,2.97
2019-02-15T15:42:14.965Z,3.23
2019-02-15T15:44:45.997Z,3.33
2019-02-15T15:47:14.713Z,3.70
2019-02-15T15:49:43.285Z,4.23
2019-02-15T15:52:11.839Z,4.73
2019-02-15T15:54:40.483Z,7.00
2019-02-15T15:57:09.063Z,6.73
2019-02-15T15:59:37.674Z,6.30
2019-02-15T16:02:06.242Z,6.70
2019-02-15T16:04:34.770Z,13.10
2019-02-15T16:07:04.604Z,16.20
2019-02-15T16:09:33.166Z,10.23
2019-02-15T16:12:01.733Z,6.13
2019-02-15T16:14:30.339Z,5.10
2019-02-15T16:16:58.911Z,4.67
2019-02-15T16:19:27.436Z,4.50
2019-02-15T16:21:57.440Z,4.87
2019-02-15T16:24:25.996Z,4.77
2019-02-15T16:26:54.485Z,4.93
2019-02-15T16:29:23.041Z,4.43
2019-02-15T16:31:51.610Z,4.20
2019-02-15T16:34:20.198Z,4.33
2019-02-15T16:36:48.749Z,4.97
2019-02-15T16:39:17.393Z,4.60
2019-02-15T16:41:48.592Z,5.53
2019-02-15T16:44:17.173Z,4.60
2019-02-15T16:46:45.732Z,4.87
2019-02-15T16:49:14.297Z,4.53
2019-02-15T16:51:42.776Z,4.03
2019-02-15T16:54:11.332Z,5.07
2019-02-15T16:56:39.999Z,4.93
2019-02-15T16:59:08.549Z,5.00
2019-02-15T17:01:37.192Z,4.30
2019-02-15T17:04:05.839Z,4.50
2019-02-15T17:06:34.393Z,5.80
2019-02-15T17:09:04.807Z,4.83
2019-02-15T17:11:33.387Z,5.33
2019-02-15T17:14:01.933Z,5.33
2019-02-15T17:16:30.519Z,5.50
2019-02-15T17:18:59.871Z,5.13
2019-02-15T17:21:29.258Z,5.47
2019-02-15T17:23:57.809Z,5.40
2019-02-15T17:26:26.416Z,4.80
2019-02-15T17:28:54.924Z,4.63
2019-02-15T17:31:23.480Z,4.83
2019-02-15T17:33:53.430Z,5.73
2019-02-15T17:36:22.033Z,4.97
2019-02-15T17:38:50.568Z,4.60
2019-02-15T17:41:19.889Z,5.07
2019-02-15T17:43:48.383Z,5.00
2019-02-15T17:46:16.936Z,5.80
2019-02-15T17:48:46.481Z,6.17
2019-02-15T17:51:15.068Z,6.37
2019-02-15T17:53:45.174Z,6.33
2019-02-15T17:56:14.026Z,6.30
2019-02-15T17:58:42.581Z,5.80
2019-02-15T18:52:03.552Z,8.50
2019-02-15T18:54:32.102Z,8.40
2019-02-15T18:57:00.669Z,8.17
2019-02-15T18:59:29.153Z,7.87
2019-02-15T19:01:57.720Z,8.00
2019-02-15T19:04:26.306Z,8.27
2019-02-15T19:36:32.747Z,7.50
2019-02-15T19:39:01.879Z,8.30
2019-02-15T19:41:30.468Z,9.37
2019-02-15T19:43:59.119Z,9.77
2019-02-15T19:46:27.677Z,9.43
2019-02-15T19:48:56.253Z,9.20
2019-02-15T19:51:24.854Z,8.00
2019-02-15T19:53:53.440Z,8.57
2019-02-15T19:56:22.150Z,7.77
2019-02-15T19:58:50.708Z,7.93
2019-02-15T20:01:20.383Z,8.27
2019-02-15T20:03:49.030Z,8.30
2019-02-15T20:06:17.965Z,7.53
2019-02-15T20:08:46.591Z,8.20
2019-02-15T20:11:15.156Z,8.33
2019-02-15T20:13:43.754Z,7.77
2019-02-15T20:16:12.367Z,8.47
2019-02-15T20:18:41.017Z,7.57
2019-02-15T20:21:09.656Z,7.47
2019-02-15T20:23:38.245Z,8.33
2019-02-15T20:26:06.912Z,8.20
2019-02-15T20:28:35.496Z,8.27
2019-02-15T20:31:04.145Z,9.80
2019-02-15T20:33:32.804Z,7.30
2019-02-15T20:36:01.440Z,8.10
2019-02-15T20:38:30.083Z,7.43
2019-02-15T20:40:58.632Z,6.60
2019-02-15T20:43:27.271Z,7.83
2019-02-15T20:45:55.825Z,7.47
2019-02-15T20:48:24.321Z,6.77
2019-02-15T20:50:52.874Z,6.67
2019-02-15T20:53:21.433Z,8.53
2019-02-15T20:55:50.006Z,8.87
2019-02-15T20:58:18.592Z,9.17
2019-02-15T21:00:47.160Z,7.97
2019-02-15T21:03:15.792Z,7.67
2019-02-15T21:05:44.439Z,8.57
2019-02-15T21:08:13.000Z,7.77
2019-02-15T21:10:41.579Z,8.20
2019-02-15T21:13:10.143Z,8.10
2019-02-15T21:15:39.259Z,8.13
2019-02-15T21:18:07.852Z,7.63
2019-02-15T21:20:36.380Z,6.30
2019-02-15T21:23:04.877Z,6.47
2019-02-15T21:25:33.456Z,6.57
2019-02-15T21:28:02.659Z,7.10
2019-02-15T21:30:31.228Z,6.00
2019-02-15T21:32:59.811Z,6.67
2019-02-15T21:35:28.503Z,6.37
2019-02-15T21:37:57.047Z,6.13
2019-02-15T21:40:25.641Z,6.13
2019-02-15T21:42:54.193Z,6.50
2019-02-15T21:45:22.731Z,7.20
2019-02-15T21:47:54.045Z,6.13
2019-02-15T21:50:22.647Z,7.17
2019-02-15T21:52:51.751Z,7.73
2019-02-15T21:55:21.886Z,7.87
2019-02-15T21:57:50.493Z,7.33
2019-02-15T22:00:24.291Z,6.83
2019-02-15T22:02:52.819Z,10.87
2019-02-15T22:05:21.319Z,10.50
2019-02-15T22:07:49.875Z,11.60
2019-02-15T22:10:18.975Z,11.53
2019-02-15T22:12:47.490Z,12.07
2019-02-15T22:15:17.210Z,12.63
2019-02-15T22:17:45.703Z,11.27
2019-02-15T22:20:15.584Z,10.43
2019-02-15T22:22:44.141Z,10.73
2019-02-15T22:25:12.788Z,10.90
2019-02-15T22:27:42.123Z,9.27
2019-02-15T22:30:13.763Z,10.20
2019-02-15T22:32:42.668Z,8.50
2019-02-15T22:35:12.016Z,7.53
2019-02-15T22:37:40.619Z,7.77
2019-02-15T22:40:27.242Z,7.17
2019-02-15T22:42:56.698Z,8.30
2019-02-15T22:45:25.250Z,8.83
2019-02-15T22:47:53.872Z,7.03
2019-02-15T22:50:22.426Z,7.87
2019-02-15T22:52:50.968Z,7.50
2019-02-15T22:55:19.459Z,7.83
2019-02-15T22:57:48.074Z,8.03
2019-02-15T23:00:25.465Z,7.67
2019-02-15T23:02:54.158Z,7.03
2019-02-15T23:05:22.788Z,7.23
2019-02-15T23:07:51.428Z,7.90
2019-02-15T23:10:20.113Z,7.00
2019-02-15T23:12:48.621Z,7.17
2019-02-15T23:15:17.225Z,7.87
2019-02-15T23:17:45.845Z,7.67
2019-02-15T23:20:14.450Z,7.87
2019-02-15T23:22:43.012Z,8.90
2019-02-15T23:25:11.548Z,7.97
2019-02-15T23:27:40.139Z,8.70
2019-02-15T23:30:08.839Z,7.20
2019-02-15T23:32:37.395Z,8.70
2019-02-15T23:35:06.282Z,8.50
2019-02-15T23:37:34.848Z,8.73
2019-02-15T23:40:04.426Z,8.63
2019-02-15T23:42:32.909Z,8.67
2019-02-15T23:45:01.555Z,8.73
2019-02-15T23:47:30.121Z,8.70
2019-02-15T23:49:58.678Z,8.50
2019-02-15T23:53:24.358Z,7.57
2019-02-15T23:55:52.892Z,8.50
2019-02-15T23:58:21.468Z,8.97
